createdAt,value
2018-02-11T00:00:01.899Z,0
2018-02-11T00:01:16.826Z,0
2018-02-11T00:02:32.137Z,0
2018-02-11T00:03:47.324Z,0
2018-02-11T00:05:02.554Z,0
2018-02-11T00:06:17.424Z,0
2018-02-11T00:07:32.710Z,0
2018-02-11T00:08:47.747Z,0
2018-02-11T00:10:02.359Z,0
2018-02-11T00:11:17.053Z,0
2018-02-11T00:12:31.923Z,0
2018-02-11T00:13:47.614Z,0
2018-02-11T00:15:02.897Z,0
2018-02-11T00:16:17.876Z,0
2018-02-11T00:17:32.963Z,0
2018-02-11T00:18:47.552Z,0
2018-02-11T00:20:02.443Z,0
2018-02-11T00:21:17.398Z,0
2018-02-11T00:22:32.512Z,0
2018-02-11T00:23:47.772Z,0
2018-02-11T00:25:02.284Z,0
2018-02-11T00:26:17.344Z,0
2018-02-11T00:27:33.093Z,0
2018-02-11T00:28:48.344Z,0
2018-02-11T00:30:03.763Z,0
2018-02-11T00:31:19.017Z,0
2018-02-11T00:32:34.029Z,0
2018-02-11T00:33:49.422Z,0
2018-02-11T00:35:04.538Z,0
2018-02-11T00:36:19.825Z,0
2018-02-11T00:37:34.608Z,0
2018-02-11T00:38:49.543Z,0
2018-02-11T00:40:04.449Z,0
2018-02-11T00:41:19.325Z,0
2018-02-11T00:42:34.409Z,0
2018-02-11T00:43:49.372Z,0
2018-02-11T00:45:04.081Z,0
2018-02-11T00:46:18.669Z,0
2018-02-11T00:47:33.786Z,0
2018-02-11T00:48:48.431Z,0
2018-02-11T00:50:03.030Z,0
2018-02-11T00:51:17.689Z,0
2018-02-11T00:52:33.319Z,0
2018-02-11T00:53:48.411Z,0
2018-02-11T00:55:03.031Z,0
2018-02-11T00:56:18.293Z,0
2018-02-11T00:57:32.957Z,0
2018-02-11T00:58:48.435Z,0
2018-02-11T01:00:03.648Z,0
2018-02-11T01:01:18.529Z,0
2018-02-11T01:02:33.258Z,0
2018-02-11T01:03:47.559Z,0
2018-02-11T01:05:02.509Z,0
2018-02-11T01:06:17.145Z,0
2018-02-11T01:07:31.827Z,0
2018-02-11T01:08:46.953Z,0
2018-02-11T01:10:01.294Z,0
2018-02-11T01:11:16.200Z,0
2018-02-11T01:12:30.442Z,0
2018-02-11T01:13:45.286Z,0
2018-02-11T01:14:59.626Z,0
2018-02-11T01:16:13.974Z,0
2018-02-11T01:17:29.157Z,0
2018-02-11T01:19:09.131Z,0
2018-02-11T01:20:23.745Z,0
2018-02-11T01:21:38.627Z,0
2018-02-11T01:22:53.784Z,0
2018-02-11T01:24:08.197Z,0
2018-02-11T01:25:23.079Z,0
2018-02-11T01:26:37.152Z,0
2018-02-11T01:27:52.015Z,0
2018-02-11T01:29:06.872Z,0
2018-02-11T01:30:21.267Z,0
2018-02-11T01:31:36.413Z,0
2018-02-11T01:32:51.094Z,0
2018-02-11T01:34:05.991Z,0
2018-02-11T01:35:20.625Z,0
2018-02-11T01:36:35.534Z,0
2018-02-11T01:37:49.956Z,0
2018-02-11T01:39:04.536Z,0
2018-02-11T01:40:18.577Z,0
2018-02-11T01:41:32.791Z,0
2018-02-11T01:42:47.799Z,0
2018-02-11T01:44:02.145Z,0
2018-02-11T01:45:17.450Z,0
2018-02-11T01:46:31.989Z,0
2018-02-11T01:47:47.002Z,0
2018-02-11T01:49:01.806Z,0
2018-02-11T01:50:16.634Z,0
2018-02-11T01:51:30.672Z,0
2018-02-11T01:52:45.542Z,0
2018-02-11T01:54:01.536Z,0
2018-02-11T01:55:16.325Z,0
2018-02-11T01:56:30.625Z,0
2018-02-11T01:57:45.501Z,0
2018-02-11T01:59:00.159Z,0
2018-02-11T02:00:14.799Z,0
2018-02-11T02:01:29.481Z,0
2018-02-11T02:02:43.885Z,0
2018-02-11T02:03:58.272Z,0
2018-02-11T02:05:12.892Z,0
2018-02-11T02:06:28.098Z,0
2018-02-11T02:07:42.718Z,0
2018-02-11T02:08:57.631Z,0
2018-02-11T02:10:13.115Z,0
2018-02-11T02:11:27.712Z,0
2018-02-11T02:12:42.331Z,0
2018-02-11T02:13:58.242Z,0
2018-02-11T02:15:13.183Z,0
2018-02-11T02:16:27.801Z,0
2018-02-11T02:17:42.356Z,0
2018-02-11T02:18:57.756Z,0
2018-02-11T02:20:12.582Z,0
2018-02-11T02:21:27.748Z,0
2018-02-11T02:22:41.568Z,0
2018-02-11T02:23:56.199Z,0
2018-02-11T02:25:11.399Z,0
2018-02-11T02:26:25.686Z,0
2018-02-11T02:27:40.321Z,0
2018-02-11T02:28:55.075Z,0
2018-02-11T02:30:09.400Z,0
2018-02-11T02:31:24.588Z,0
2018-02-11T02:32:39.500Z,0
2018-02-11T02:33:54.713Z,0
2018-02-11T02:35:09.021Z,0
2018-02-11T02:36:24.187Z,0
2018-02-11T02:37:39.048Z,0
2018-02-11T02:38:53.614Z,0
2018-02-11T02:40:08.879Z,0
2018-02-11T02:41:24.052Z,0
2018-02-11T02:43:10.638Z,0
2018-02-11T02:44:25.477Z,0
2018-02-11T02:45:40.052Z,0
2018-02-11T02:46:55.490Z,0
2018-02-11T02:48:09.778Z,0
2018-02-11T02:49:25.078Z,0
2018-02-11T02:50:39.933Z,0
2018-02-11T02:51:54.782Z,0
2018-02-11T02:53:09.420Z,0
2018-02-11T02:54:24.867Z,0
2018-02-11T02:55:39.500Z,0
2018-02-11T02:56:54.414Z,0
2018-02-11T02:58:08.748Z,0
2018-02-11T02:59:23.310Z,0
2018-02-11T03:00:38.162Z,0
2018-02-11T03:01:53.345Z,0
2018-02-11T03:03:08.488Z,0
2018-02-11T03:04:24.051Z,0
2018-02-11T03:05:38.677Z,0
2018-02-11T03:06:53.563Z,0
2018-02-11T03:08:08.814Z,0
2018-02-11T03:09:24.067Z,0
2018-02-11T03:10:39.484Z,0
2018-02-11T03:11:53.807Z,0
2018-02-11T03:13:08.964Z,0
2018-02-11T03:14:24.073Z,0
2018-02-11T03:15:38.760Z,0
2018-02-11T03:16:53.649Z,0
2018-02-11T03:18:08.751Z,0
2018-02-11T03:19:23.881Z,0
2018-02-11T03:20:39.052Z,0
2018-02-11T03:21:53.900Z,0
2018-02-11T03:23:09.304Z,0
2018-02-11T03:24:24.214Z,0
2018-02-11T03:25:39.159Z,0
2018-02-11T03:26:54.631Z,0
2018-02-11T03:28:08.962Z,0
2018-02-11T03:29:24.116Z,0
2018-02-11T03:30:38.937Z,0
2018-02-11T03:31:53.241Z,0
2018-02-11T03:33:08.381Z,0
2018-02-11T03:34:23.241Z,0
2018-02-11T03:35:37.792Z,0
2018-02-11T03:36:52.387Z,0
2018-02-11T03:38:07.369Z,0
2018-02-11T03:39:22.552Z,0
2018-02-11T03:40:36.902Z,0
2018-02-11T03:41:51.502Z,0
2018-02-11T03:43:06.324Z,0
2018-02-11T03:44:20.961Z,0
2018-02-11T03:45:36.260Z,0
2018-02-11T03:46:51.384Z,0
2018-02-11T03:48:06.004Z,0
2018-02-11T03:49:20.622Z,0
2018-02-11T03:50:35.627Z,0
2018-02-11T03:51:50.979Z,0
2018-02-11T03:53:05.040Z,0
2018-02-11T03:54:19.072Z,0
2018-02-11T03:55:33.871Z,0
2018-02-11T03:56:48.146Z,0
2018-02-11T03:58:03.592Z,0
2018-02-11T03:59:17.583Z,0
2018-02-11T04:00:32.445Z,0
2018-02-11T04:01:46.778Z,0
2018-02-11T04:03:02.191Z,0
2018-02-11T04:04:17.646Z,0
2018-02-11T04:05:32.229Z,0
2018-02-11T04:06:46.523Z,0
2018-02-11T04:08:01.403Z,0
2018-02-11T04:09:16.253Z,0
2018-02-11T04:10:31.199Z,0
2018-02-11T04:11:46.825Z,0
2018-02-11T04:13:01.390Z,0
2018-02-11T04:14:16.507Z,0
2018-02-11T04:15:30.599Z,0
2018-02-11T04:16:46.194Z,0
2018-02-11T04:18:01.097Z,0
2018-02-11T04:19:15.980Z,0
2018-02-11T04:20:31.210Z,0
2018-02-11T04:21:45.563Z,0
2018-02-11T04:23:00.733Z,0
2018-02-11T04:24:15.951Z,0
2018-02-11T04:25:31.162Z,0
2018-02-11T04:26:46.404Z,0
2018-02-11T04:28:01.092Z,0
2018-02-11T04:29:16.223Z,0
2018-02-11T04:30:30.540Z,0
2018-02-11T04:31:45.965Z,0
2018-02-11T04:33:00.860Z,0
2018-02-11T04:34:15.436Z,0
2018-02-11T04:35:30.116Z,0
2018-02-11T04:36:44.675Z,0
2018-02-11T04:37:59.246Z,0
2018-02-11T04:39:14.379Z,0
2018-02-11T04:40:29.547Z,0
2018-02-11T04:41:44.437Z,0
2018-02-11T04:42:59.296Z,0
2018-02-11T04:44:14.192Z,0
2018-02-11T04:45:28.784Z,0
2018-02-11T04:46:43.727Z,0
2018-02-11T04:47:59.138Z,0
2018-02-11T04:49:13.459Z,0
2018-02-11T04:50:28.350Z,0
2018-02-11T04:51:42.999Z,0
2018-02-11T04:52:57.282Z,0
2018-02-11T04:54:12.449Z,0
2018-02-11T04:55:26.767Z,0
2018-02-11T04:56:42.397Z,0
2018-02-11T04:57:57.264Z,0
2018-02-11T04:59:11.894Z,0
2018-02-11T05:00:26.996Z,0
2018-02-11T05:01:42.022Z,0
2018-02-11T05:02:56.352Z,0
2018-02-11T05:04:10.404Z,0
2018-02-11T05:05:25.606Z,0
2018-02-11T05:06:40.766Z,0
2018-02-11T05:07:55.991Z,0
2018-02-11T05:09:11.402Z,0
2018-02-11T05:10:25.689Z,0
2018-02-11T05:11:40.856Z,0
2018-02-11T05:12:56.032Z,0
2018-02-11T05:14:10.891Z,0
2018-02-11T05:15:25.476Z,0
2018-02-11T05:16:39.878Z,0
2018-02-11T05:19:11.728Z,0
2018-02-11T05:20:26.610Z,0
2018-02-11T05:21:41.536Z,0
2018-02-11T05:22:56.222Z,0
2018-02-11T05:24:11.134Z,0
2018-02-11T05:25:25.802Z,0
2018-02-11T05:26:40.659Z,0
2018-02-11T05:27:54.781Z,0
2018-02-11T05:29:30.151Z,0
2018-02-11T05:30:45.329Z,0
2018-02-11T05:32:00.273Z,0
2018-02-11T05:33:14.719Z,0
2018-02-11T05:34:29.036Z,0
2018-02-11T05:35:43.921Z,0
2018-02-11T05:36:59.364Z,0
2018-02-11T05:38:14.313Z,0
2018-02-11T05:39:29.138Z,0
2018-02-11T05:40:43.540Z,0
2018-02-11T05:41:57.825Z,0
2018-02-11T05:43:12.898Z,0
2018-02-11T05:44:27.244Z,0
2018-02-11T05:45:42.436Z,0
2018-02-11T05:46:56.449Z,0
2018-02-11T05:48:11.763Z,0
2018-02-11T05:49:27.240Z,0
2018-02-11T05:50:41.808Z,0
2018-02-11T05:51:56.653Z,0
2018-02-11T05:53:11.792Z,0
2018-02-11T05:54:26.914Z,0
2018-02-11T05:55:42.337Z,0
2018-02-11T05:56:56.888Z,0
2018-02-11T05:58:11.698Z,0
2018-02-11T05:59:26.279Z,0
2018-02-11T06:00:40.894Z,0
2018-02-11T06:01:57.036Z,0
2018-02-11T06:03:11.984Z,0
2018-02-11T06:04:26.545Z,0
2018-02-11T06:05:41.425Z,0
2018-02-11T06:06:56.566Z,0
2018-02-11T06:08:12.052Z,0
2018-02-11T06:09:26.883Z,0
2018-02-11T06:10:41.500Z,0
2018-02-11T06:11:56.902Z,0
2018-02-11T06:13:10.716Z,0
2018-02-11T06:14:25.865Z,0
2018-02-11T06:15:40.785Z,0
2018-02-11T06:16:55.686Z,0
2018-02-11T06:18:10.518Z,0
2018-02-11T06:19:24.805Z,0
2018-02-11T06:20:39.687Z,0
2018-02-11T06:21:54.311Z,0
2018-02-11T06:23:09.433Z,4
2018-02-11T06:24:24.341Z,4
2018-02-11T06:25:39.457Z,0
2018-02-11T06:26:55.147Z,4
2018-02-11T06:28:10.005Z,4
2018-02-11T06:29:25.574Z,4
2018-02-11T06:30:40.426Z,8
2018-02-11T06:31:55.362Z,4
2018-02-11T06:33:10.337Z,8
2018-02-11T06:34:25.082Z,8
2018-02-11T06:35:39.952Z,12
2018-02-11T06:36:54.805Z,12
2018-02-11T06:38:09.675Z,16
2018-02-11T06:39:25.116Z,20
2018-02-11T06:40:40.244Z,24
2018-02-11T06:41:55.565Z,24
2018-02-11T06:43:09.900Z,28
2018-02-11T06:44:24.849Z,32
2018-02-11T06:45:40.071Z,36
2018-02-11T06:46:54.355Z,36
2018-02-11T06:48:09.240Z,44
2018-02-11T06:49:23.564Z,48
2018-02-11T06:50:38.129Z,64
2018-02-11T06:51:54.551Z,72
2018-02-11T06:53:09.597Z,88
2018-02-11T06:54:24.919Z,84
2018-02-11T06:55:39.874Z,88
2018-02-11T06:56:55.270Z,96
2018-02-11T06:58:10.530Z,136
2018-02-11T06:59:25.469Z,164
2018-02-11T07:00:39.827Z,176
2018-02-11T07:01:55.053Z,172
2018-02-11T07:03:09.687Z,120
2018-02-11T07:04:24.566Z,128
2018-02-11T07:05:39.450Z,120
2018-02-11T07:06:53.929Z,128
2018-02-11T07:08:08.753Z,132
2018-02-11T07:09:23.769Z,156
2018-02-11T07:10:39.191Z,140
2018-02-11T07:11:54.627Z,140
2018-02-11T07:13:09.238Z,156
2018-02-11T07:14:23.831Z,176
2018-02-11T07:15:38.448Z,172
2018-02-11T07:16:53.067Z,164
2018-02-11T07:18:07.954Z,180
2018-02-11T07:19:23.258Z,160
2018-02-11T07:20:37.878Z,152
2018-02-11T07:21:52.224Z,148
2018-02-11T07:23:07.183Z,140
2018-02-11T07:24:21.976Z,140
2018-02-11T07:25:36.319Z,128
2018-02-11T07:26:51.071Z,132
2018-02-11T07:28:06.342Z,144
2018-02-11T07:29:21.469Z,156
2018-02-11T07:30:35.772Z,156
2018-02-11T07:31:50.983Z,176
2018-02-11T07:33:06.174Z,180
2018-02-11T07:34:21.558Z,188
2018-02-11T07:35:36.179Z,240
2018-02-11T07:36:51.046Z,204
2018-02-11T07:38:06.045Z,228
2018-02-11T07:39:20.438Z,228
2018-02-11T07:40:35.608Z,196
2018-02-11T07:41:51.091Z,180
2018-02-11T07:43:05.832Z,156
2018-02-11T07:44:20.504Z,148
2018-02-11T07:45:35.404Z,176
2018-02-11T07:46:50.072Z,200
2018-02-11T07:48:05.884Z,208
2018-02-11T07:49:21.353Z,248
2018-02-11T07:50:36.923Z,224
2018-02-11T07:51:51.282Z,236
2018-02-11T07:53:05.904Z,248
2018-02-11T07:54:20.580Z,264
2018-02-11T07:55:35.728Z,276
2018-02-11T07:56:50.089Z,296
2018-02-11T07:58:04.510Z,316
2018-02-11T07:59:19.147Z,356
2018-02-11T08:00:34.200Z,376
2018-02-11T08:01:48.543Z,388
2018-02-11T08:03:03.159Z,424
2018-02-11T08:04:17.701Z,472
2018-02-11T08:05:32.299Z,472
2018-02-11T08:06:48.001Z,444
2018-02-11T08:08:02.582Z,408
2018-02-11T08:09:17.659Z,404
2018-02-11T08:10:32.246Z,344
2018-02-11T08:11:47.569Z,420
2018-02-11T08:13:02.245Z,420
2018-02-11T08:14:16.879Z,528
2018-02-11T08:15:31.923Z,568
2018-02-11T08:16:46.516Z,512
2018-02-11T08:18:01.723Z,448
2018-02-11T08:19:16.438Z,440
2018-02-11T08:20:31.681Z,380
2018-02-11T08:21:49.038Z,432
2018-02-11T08:24:07.135Z,396
2018-02-11T08:25:22.389Z,460
2018-02-11T08:26:37.342Z,368
2018-02-11T08:27:52.822Z,460
2018-02-11T08:29:08.065Z,444
2018-02-11T08:30:23.546Z,472
2018-02-11T08:31:38.705Z,456
2018-02-11T08:32:53.059Z,404
2018-02-11T08:34:08.334Z,388
2018-02-11T08:35:22.986Z,420
2018-02-11T08:36:37.101Z,344
2018-02-11T08:37:52.046Z,556
2018-02-11T08:39:06.943Z,584
2018-02-11T08:40:21.614Z,536
2018-02-11T08:41:36.002Z,496
2018-02-11T08:42:50.929Z,496
2018-02-11T08:44:06.417Z,500
2018-02-11T08:45:21.998Z,588
2018-02-11T08:46:37.062Z,568
2018-02-11T08:47:51.683Z,676
2018-02-11T08:49:06.331Z,720
2018-02-11T08:50:21.540Z,736
2018-02-11T08:51:36.746Z,784
2018-02-11T08:52:51.668Z,904
2018-02-11T08:54:06.305Z,764
2018-02-11T08:55:20.649Z,816
2018-02-11T08:56:35.901Z,568
2018-02-11T08:57:50.789Z,628
2018-02-11T08:59:05.461Z,600
2018-02-11T09:00:20.092Z,596
2018-02-11T09:01:35.312Z,472
2018-02-11T09:02:50.189Z,508
2018-02-11T09:04:05.452Z,468
2018-02-11T09:05:20.827Z,520
2018-02-11T09:06:35.815Z,528
2018-02-11T09:07:50.635Z,544
2018-02-11T09:09:06.023Z,572
2018-02-11T09:10:21.034Z,632
2018-02-11T09:11:36.051Z,604
2018-02-11T09:12:51.349Z,768
2018-02-11T09:14:06.849Z,780
2018-02-11T09:15:22.163Z,844
2018-02-11T09:16:36.883Z,656
2018-02-11T09:17:52.477Z,820
2018-02-11T09:19:07.410Z,832
2018-02-11T09:20:22.119Z,904
2018-02-11T09:21:37.344Z,1056
2018-02-11T09:22:52.277Z,1284
2018-02-11T09:24:06.955Z,1336
2018-02-11T09:25:21.392Z,1380
2018-02-11T09:26:36.640Z,1296
2018-02-11T09:27:52.033Z,1280
2018-02-11T09:29:06.997Z,1320
2018-02-11T09:30:21.186Z,1160
2018-02-11T09:31:36.161Z,1016
2018-02-11T09:32:51.760Z,996
2018-02-11T09:34:06.461Z,876
2018-02-11T09:35:20.385Z,792
2018-02-11T09:36:35.052Z,884
2018-02-11T09:37:50.422Z,864
2018-02-11T09:39:05.432Z,932
2018-02-11T09:40:21.296Z,892
2018-02-11T09:41:35.975Z,988
2018-02-11T09:42:51.077Z,1032
2018-02-11T09:44:05.849Z,1156
2018-02-11T09:45:20.569Z,1232
2018-02-11T09:46:34.965Z,1428
2018-02-11T09:47:49.431Z,1392
2018-02-11T09:49:05.023Z,1284
2018-02-11T09:50:19.684Z,1200
2018-02-11T09:51:34.048Z,1112
2018-02-11T09:52:49.125Z,964
2018-02-11T09:54:03.830Z,928
2018-02-11T09:55:18.543Z,896
2018-02-11T09:56:33.471Z,912
2018-02-11T09:57:48.244Z,860
2018-02-11T09:59:02.994Z,852
2018-02-11T10:00:17.713Z,864
2018-02-11T10:01:32.747Z,976
2018-02-11T10:02:47.558Z,992
2018-02-11T10:04:02.625Z,1084
2018-02-11T10:05:17.359Z,1216
2018-02-11T10:06:32.299Z,1296
2018-02-11T10:07:47.630Z,1620
2018-02-11T10:09:02.923Z,1708
2018-02-11T10:10:18.270Z,1716
2018-02-11T10:11:34.013Z,1588
2018-02-11T10:12:48.467Z,1672
2018-02-11T10:14:03.358Z,1816
2018-02-11T10:15:17.586Z,1564
2018-02-11T10:16:32.710Z,1564
2018-02-11T10:17:47.351Z,1484
2018-02-11T10:19:01.590Z,1324
2018-02-11T10:20:16.318Z,1244
2018-02-11T10:21:31.319Z,1228
2018-02-11T10:22:45.979Z,1336
2018-02-11T10:24:01.449Z,1360
2018-02-11T10:25:16.414Z,1300
2018-02-11T10:26:31.192Z,1248
2018-02-11T10:27:45.887Z,1400
2018-02-11T10:29:00.684Z,1248
2018-02-11T10:30:16.557Z,1096
2018-02-11T10:31:32.035Z,1020
2018-02-11T10:32:47.594Z,880
2018-02-11T10:34:03.117Z,812
2018-02-11T10:35:17.511Z,960
2018-02-11T10:36:32.935Z,980
2018-02-11T10:37:48.222Z,1056
2018-02-11T10:39:03.429Z,1140
2018-02-11T10:40:18.455Z,1160
2018-02-11T10:41:32.864Z,1432
2018-02-11T10:42:47.826Z,1360
2018-02-11T10:44:03.307Z,1472
2018-02-11T10:45:17.865Z,1428
2018-02-11T10:46:32.887Z,1560
2018-02-11T10:47:47.352Z,1440
2018-02-11T10:49:03.136Z,1232
2018-02-11T10:50:17.694Z,1184
2018-02-11T10:51:32.118Z,1156
2018-02-11T10:52:46.784Z,1188
2018-02-11T10:54:01.800Z,1252
2018-02-11T10:55:17.288Z,1216
2018-02-11T10:56:32.905Z,1284
2018-02-11T10:57:48.159Z,1288
2018-02-11T10:59:02.567Z,1236
2018-02-11T11:00:17.633Z,1224
2018-02-11T11:01:33.407Z,1352
2018-02-11T11:02:48.123Z,1204
2018-02-11T11:04:02.832Z,1228
2018-02-11T11:05:17.541Z,1124
2018-02-11T11:06:32.771Z,1308
2018-02-11T11:07:47.904Z,1324
2018-02-11T11:09:03.210Z,1204
2018-02-11T11:10:17.913Z,1268
2018-02-11T11:11:33.374Z,1536
2018-02-11T11:12:48.079Z,1468
2018-02-11T11:14:03.439Z,1632
2018-02-11T11:15:17.582Z,1328
2018-02-11T11:16:31.718Z,1408
2018-02-11T11:17:46.696Z,1376
2018-02-11T11:19:01.212Z,1252
2018-02-11T11:20:16.478Z,1240
2018-02-11T11:21:31.170Z,1484
2018-02-11T11:22:46.424Z,1472
2018-02-11T11:24:01.638Z,1200
2018-02-11T11:25:16.026Z,1256
2018-02-11T11:26:31.019Z,1172
2018-02-11T11:27:46.028Z,1156
2018-02-11T11:29:01.481Z,1140
2018-02-11T11:30:15.900Z,1220
2018-02-11T11:31:30.811Z,1220
2018-02-11T11:32:46.174Z,1236
2018-02-11T11:34:01.088Z,1336
2018-02-11T11:35:16.310Z,1132
2018-02-11T11:36:30.552Z,976
2018-02-11T11:37:45.606Z,904
2018-02-11T11:39:00.536Z,784
2018-02-11T11:40:15.538Z,856
2018-02-11T11:41:30.206Z,796
2018-02-11T11:42:45.299Z,868
2018-02-11T11:44:00.537Z,768
2018-02-11T11:45:15.909Z,720
2018-02-11T11:46:30.134Z,700
2018-02-11T11:47:44.991Z,780
2018-02-11T11:48:59.996Z,764
2018-02-11T11:50:14.696Z,844
2018-02-11T11:51:29.952Z,820
2018-02-11T11:52:45.169Z,740
2018-02-11T11:53:59.827Z,776
2018-02-11T11:55:14.200Z,760
2018-02-11T11:56:28.678Z,900
2018-02-11T11:57:42.935Z,820
2018-02-11T11:58:58.393Z,868
2018-02-11T12:00:13.554Z,884
2018-02-11T12:01:28.800Z,896
2018-02-11T12:02:43.818Z,1012
2018-02-11T12:03:58.518Z,836
2018-02-11T12:05:13.796Z,956
2018-02-11T12:06:28.523Z,1032
2018-02-11T12:07:42.668Z,1060
2018-02-11T12:08:57.994Z,1040
2018-02-11T12:10:12.920Z,1036
2018-02-11T12:11:27.197Z,848
2018-02-11T12:12:41.266Z,976
2018-02-11T12:13:56.645Z,896
2018-02-11T12:15:12.220Z,1008
2018-02-11T12:16:26.735Z,820
2018-02-11T12:17:41.776Z,692
2018-02-11T12:19:09.764Z,952
2018-02-11T12:20:24.393Z,932
2018-02-11T12:21:39.394Z,836
2018-02-11T12:22:54.218Z,856
2018-02-11T12:24:09.072Z,716
2018-02-11T12:25:23.849Z,752
2018-02-11T12:26:38.963Z,816
2018-02-11T12:27:53.971Z,896
2018-02-11T12:29:08.712Z,736
2018-02-11T12:30:23.637Z,796
2018-02-11T12:31:38.870Z,968
2018-02-11T12:32:53.875Z,1100
2018-02-11T12:34:08.867Z,1120
2018-02-11T12:35:23.891Z,1104
2018-02-11T12:36:38.117Z,1216
2018-02-11T12:37:53.176Z,1596
2018-02-11T12:39:07.929Z,1804
2018-02-11T12:40:23.196Z,2140
2018-02-11T12:41:37.563Z,2212
2018-02-11T12:42:52.228Z,2620
2018-02-11T12:44:07.032Z,3012
2018-02-11T12:45:22.273Z,2340
2018-02-11T12:46:37.519Z,2708
2018-02-11T12:47:52.580Z,3340
2018-02-11T12:49:07.669Z,3568
2018-02-11T12:50:23.011Z,3612
2018-02-11T12:51:36.917Z,3592
2018-02-11T12:52:51.014Z,3584
2018-02-11T12:54:06.222Z,3520
2018-02-11T12:55:20.843Z,3448
2018-02-11T12:56:36.192Z,3368
2018-02-11T12:57:50.580Z,3200
2018-02-11T12:59:05.975Z,3020
2018-02-11T13:00:21.400Z,2784
2018-02-11T13:01:36.330Z,2400
2018-02-11T13:02:51.028Z,2232
2018-02-11T13:04:06.217Z,2076
2018-02-11T13:05:20.365Z,2028
2018-02-11T13:06:36.146Z,2056
2018-02-11T13:07:50.608Z,2020
2018-02-11T13:09:05.333Z,1960
2018-02-11T13:10:20.125Z,1992
2018-02-11T13:11:35.406Z,1984
2018-02-11T13:12:50.840Z,2004
2018-02-11T13:14:05.641Z,2036
2018-02-11T13:15:20.430Z,2080
2018-02-11T13:16:35.159Z,2188
2018-02-11T13:17:49.818Z,2292
2018-02-11T13:19:04.803Z,2372
2018-02-11T13:20:19.520Z,2324
2018-02-11T13:21:34.192Z,2312
2018-02-11T13:22:48.627Z,2364
2018-02-11T13:24:03.299Z,2420
2018-02-11T13:25:18.708Z,2488
2018-02-11T13:26:33.288Z,2544
2018-02-11T13:27:47.813Z,2624
2018-02-11T13:29:02.816Z,2700
2018-02-11T13:31:40.561Z,2740
2018-02-11T13:32:55.550Z,2740
2018-02-11T13:34:10.358Z,2672
2018-02-11T13:35:24.730Z,2592
2018-02-11T13:36:39.197Z,2604
2018-02-11T13:37:54.725Z,2464
2018-02-11T13:39:09.149Z,2264
2018-02-11T13:40:23.991Z,2252
2018-02-11T13:41:38.816Z,2132
2018-02-11T13:42:53.599Z,2184
2018-02-11T13:44:08.867Z,1940
2018-02-11T13:45:23.984Z,2108
2018-02-11T13:46:37.867Z,1992
2018-02-11T13:47:51.753Z,2084
2018-02-11T13:49:06.423Z,2172
2018-02-11T13:50:22.035Z,2172
2018-02-11T13:51:37.077Z,2404
2018-02-11T13:52:52.440Z,2520
2018-02-11T13:54:07.261Z,1928
2018-02-11T13:55:22.337Z,1812
2018-02-11T13:56:37.378Z,2036
2018-02-11T13:57:51.321Z,2440
2018-02-11T13:59:06.320Z,2084
2018-02-11T14:00:21.461Z,2032
2018-02-11T14:01:36.705Z,1972
2018-02-11T14:02:52.659Z,1440
2018-02-11T14:04:07.678Z,1344
2018-02-11T14:05:22.090Z,1176
2018-02-11T14:06:37.075Z,968
2018-02-11T14:07:52.576Z,820
2018-02-11T14:09:08.248Z,764
2018-02-11T14:10:23.049Z,692
2018-02-11T14:11:38.104Z,768
2018-02-11T14:12:52.943Z,608
2018-02-11T14:14:07.203Z,444
2018-02-11T14:15:21.753Z,532
2018-02-11T14:16:36.147Z,572
2018-02-11T14:17:50.764Z,508
2018-02-11T14:19:05.275Z,664
2018-02-11T14:20:20.574Z,720
2018-02-11T14:21:36.407Z,752
2018-02-11T14:22:51.655Z,744
2018-02-11T14:24:06.527Z,620
2018-02-11T14:25:21.327Z,664
2018-02-11T14:26:36.739Z,560
2018-02-11T14:27:51.059Z,564
2018-02-11T14:29:05.877Z,584
2018-02-11T14:30:21.118Z,696
2018-02-11T14:31:35.828Z,636
2018-02-11T14:32:50.641Z,584
2018-02-11T14:34:05.480Z,532
2018-02-11T14:35:20.221Z,480
2018-02-11T14:36:34.912Z,544
2018-02-11T14:37:49.006Z,560
2018-02-11T14:39:04.006Z,640
2018-02-11T14:40:19.270Z,704
2018-02-11T14:41:34.799Z,696
2018-02-11T14:42:50.050Z,692
2018-02-11T14:44:04.897Z,624
2018-02-11T14:45:19.892Z,872
2018-02-11T14:46:35.350Z,1056
2018-02-11T14:47:50.048Z,700
2018-02-11T14:49:05.263Z,888
2018-02-11T14:50:20.194Z,932
2018-02-11T14:51:35.171Z,832
2018-02-11T14:52:50.777Z,708
2018-02-11T14:54:05.402Z,648
2018-02-11T14:55:20.357Z,756
2018-02-11T14:56:35.098Z,748
2018-02-11T14:57:50.044Z,664
2018-02-11T14:59:05.426Z,628
2018-02-11T15:00:19.623Z,672
2018-02-11T15:01:34.650Z,536
2018-02-11T15:02:49.659Z,540
2018-02-11T15:04:04.164Z,512
2018-02-11T15:05:19.457Z,520
2018-02-11T15:06:33.860Z,384
2018-02-11T15:07:49.234Z,420
2018-02-11T15:09:04.342Z,380
2018-02-11T15:10:19.361Z,344
2018-02-11T15:11:34.640Z,348
2018-02-11T15:12:49.958Z,504
2018-02-11T15:14:05.222Z,628
2018-02-11T15:15:19.856Z,508
2018-02-11T15:16:34.400Z,548
2018-02-11T15:17:49.545Z,672
2018-02-11T15:19:03.893Z,804
2018-02-11T15:20:19.492Z,732
2018-02-11T15:21:33.903Z,700
2018-02-11T15:22:48.632Z,632
2018-02-11T15:24:04.348Z,628
2018-02-11T15:25:19.650Z,676
2018-02-11T15:26:34.654Z,644
2018-02-11T15:27:49.700Z,592
2018-02-11T15:29:04.530Z,552
2018-02-11T15:30:19.584Z,616
2018-02-11T15:31:34.608Z,504
2018-02-11T15:32:49.609Z,476
2018-02-11T15:34:04.517Z,456
2018-02-11T15:35:19.246Z,456
2018-02-11T15:36:34.620Z,392
2018-02-11T15:37:49.825Z,448
2018-02-11T15:39:05.293Z,436
2018-02-11T15:40:19.650Z,424
2018-02-11T15:41:34.640Z,364
2018-02-11T15:42:49.384Z,360
2018-02-11T15:44:04.675Z,360
2018-02-11T15:45:19.714Z,276
2018-02-11T15:46:34.594Z,248
2018-02-11T15:47:49.615Z,280
2018-02-11T15:49:04.983Z,256
2018-02-11T15:50:19.613Z,244
2018-02-11T15:51:34.670Z,212
2018-02-11T15:52:50.070Z,220
2018-02-11T15:54:04.602Z,200
2018-02-11T15:55:19.952Z,188
2018-02-11T15:56:34.819Z,212
2018-02-11T15:58:23.984Z,212
2018-02-11T15:59:38.878Z,264
2018-02-11T16:00:53.617Z,252
2018-02-11T16:07:30.648Z,108
2018-02-11T16:08:46.180Z,92
2018-02-11T16:10:00.825Z,92
2018-02-11T16:11:15.876Z,100
2018-02-11T16:12:31.087Z,92
2018-02-11T16:13:46.099Z,68
2018-02-11T16:15:01.738Z,76
2018-02-11T16:16:16.815Z,64
2018-02-11T16:17:31.841Z,64
2018-02-11T16:18:46.829Z,52
2018-02-11T16:20:01.511Z,44
2018-02-11T16:21:16.231Z,32
2018-02-11T16:22:30.931Z,28
2018-02-11T16:23:45.268Z,24
2018-02-11T16:25:00.341Z,24
2018-02-11T16:26:14.842Z,24
2018-02-11T16:27:30.487Z,20
2018-02-11T16:28:45.447Z,20
2018-02-11T16:30:00.438Z,20
2018-02-11T16:31:15.469Z,20
2018-02-11T16:32:29.656Z,16
2018-02-11T16:33:45.320Z,16
2018-02-11T16:35:00.093Z,20
2018-02-11T16:36:15.189Z,12
2018-02-11T16:37:30.371Z,16
2018-02-11T16:38:45.266Z,8
2018-02-11T16:40:00.552Z,8
2018-02-11T16:41:15.019Z,12
2018-02-11T16:42:29.744Z,12
2018-02-11T16:43:44.565Z,16
2018-02-11T16:44:59.309Z,8
2018-02-11T16:46:14.364Z,12
2018-02-11T16:47:29.424Z,8
2018-02-11T16:48:45.074Z,12
2018-02-11T16:49:59.751Z,8
2018-02-11T16:51:13.638Z,4
2018-02-11T16:52:29.784Z,4
2018-02-11T16:53:44.266Z,4
2018-02-11T16:54:59.501Z,4
2018-02-11T16:56:16.023Z,4
2018-02-11T16:57:31.410Z,0
2018-02-11T16:58:46.922Z,4
2018-02-11T17:00:02.138Z,0
2018-02-11T17:01:16.982Z,0
2018-02-11T17:02:31.567Z,0
2018-02-11T17:03:46.409Z,0
2018-02-11T17:05:02.610Z,0
2018-02-11T17:06:16.731Z,0
2018-02-11T17:07:31.384Z,0
2018-02-11T17:08:46.210Z,0
2018-02-11T17:10:01.060Z,0
2018-02-11T17:11:16.061Z,0
2018-02-11T17:12:31.012Z,0
2018-02-11T17:13:46.191Z,0
2018-02-11T17:15:00.954Z,0
2018-02-11T17:16:15.837Z,0
2018-02-11T17:17:31.241Z,0
2018-02-11T17:18:46.617Z,0
2018-02-11T17:20:01.079Z,0
2018-02-11T17:21:16.479Z,0
2018-02-11T17:22:31.499Z,0
2018-02-11T17:23:46.923Z,0
2018-02-11T17:25:01.721Z,0
2018-02-11T17:26:16.872Z,0
2018-02-11T17:27:31.913Z,0
2018-02-11T17:28:46.758Z,0
2018-02-11T17:30:01.649Z,0
2018-02-11T17:31:16.606Z,0
2018-02-11T17:32:31.975Z,0
2018-02-11T17:33:47.032Z,0
2018-02-11T17:35:02.027Z,0
2018-02-11T17:36:17.357Z,0
2018-02-11T17:37:31.518Z,0
2018-02-11T17:38:46.875Z,0
2018-02-11T17:40:01.853Z,0
2018-02-11T17:41:15.953Z,0
2018-02-11T17:42:30.124Z,0
2018-02-11T17:43:45.573Z,0
2018-02-11T17:45:00.579Z,0
2018-02-11T17:46:15.577Z,0
2018-02-11T17:47:30.533Z,0
2018-02-11T17:48:45.904Z,0